Weather at Hahas Lake Airport [CLOSED]

Public forecast

Using degrees Celsius for public forecast. Weather courtesy of forecast.io.

Closest aviation weather report (METAR) to Hahas Lake Airport

Closest report is Cranbrook/Canadian Rockies International Airport, 7.0 nm (12.9 km) S.

2024/07/13 21:00 (retrieved 57 minutes ago)

CYXC 132100Z 09007KT 030V190 25SM SCT110 SCT240 31/06 A2997 RMK AC3CI1 SLP127 DENSITY ALT 5500FT

Closest aviation forecast (TAF) to Hahas Lake Airport

Closest forecast is Cranbrook/Canadian Rockies International Airport, 7.0 nm (12.9 km) S.

2024/07/13 19:42 (retrieved 2 hours ago)

TAF CYXC 131840Z 1319/1407 12005KT P6SM FEW110 FM132100 24008KT P6SM SCT120 TEMPO 1321/1403 VRB15G25KT P6SM -SHRA VCTS BKN100CB RMK NXT FCST BY 140100Z